Time;durP1;ratioP1;P1;durP2;ratioP2;P2;SDS_P1;SDS_P2;PMS_P1;PMS_P2;Temp;Humidity;BMP_temperature;BMP_pressure;BME280_temperature;BME280_humidity;BME280_pressure;Samples;Min_cycle;Max_cycle;Signal;HPM_P1;HPM_P2
2022/05/17 00:02:05;;;;;;;17.17;16.07;;;13.20;99.90;;;;;;5080736;28;20495;-68
2022/05/17 00:04:33;;;;;;;19.43;17.50;;;13.10;99.90;;;;;;5081126;28;20513;-67
2022/05/17 00:07:00;;;;;;;17.60;16.50;;;13.10;99.90;;;;;;5082799;28;20476;-67
2022/05/17 00:09:27;;;;;;;17.97;16.47;;;13.00;99.90;;;;;;5081469;28;20472;-67
2022/05/17 00:11:56;;;;;;;18.37;17.00;;;13.00;99.90;;;;;;5075139;28;20470;-67
2022/05/17 00:14:24;;;;;;;17.87;16.67;;;13.00;99.90;;;;;;5072037;28;20459;-67
2022/05/17 00:16:51;;;;;;;18.13;16.73;;;12.90;99.90;;;;;;5075041;28;20463;-68
2022/05/17 00:19:20;;;;;;;17.13;16.03;;;12.90;99.90;;;;;;5080970;28;20454;-67
2022/05/17 00:21:48;;;;;;;21.03;16.90;;;12.90;99.90;;;;;;5075418;28;20477;-67
2022/05/17 00:24:18;;;;;;;17.57;16.17;;;12.90;99.90;;;;;;5082179;28;20466;-67
2022/05/17 00:26:45;;;;;;;17.63;16.47;;;12.80;99.90;;;;;;5082920;28;20458;-67
2022/05/17 00:29:13;;;;;;;17.90;16.60;;;12.80;99.90;;;;;;5078663;28;20476;-68
2022/05/17 00:31:40;;;;;;;18.10;16.70;;;12.80;99.90;;;;;;5071059;28;20836;-67
2022/05/17 00:34:07;;;;;;;17.60;16.60;;;12.80;99.90;;;;;;5075663;28;20466;-67
2022/05/17 00:36:36;;;;;;;19.57;17.87;;;12.70;99.90;;;;;;5077411;28;20454;-67
2022/05/17 00:39:04;;;;;;;18.40;17.03;;;12.70;99.90;;;;;;5077952;28;20460;-67
2022/05/17 00:41:32;;;;;;;18.70;17.20;;;12.70;99.90;;;;;;5072791;28;20458;-67
2022/05/17 00:46:47;;;;;;;17.83;16.67;;;12.70;99.90;;;;;;5080219;28;20509;-67
2022/05/17 00:49:20;;;;;;;18.20;16.90;;;12.70;99.90;;;;;;5083711;28;20458;-68
2022/05/17 00:51:48;;;;;;;17.90;16.77;;;12.70;99.90;;;;;;5080926;28;20809;-68
2022/05/17 00:54:18;;;;;;;19.10;17.70;;;12.80;99.90;;;;;;5078284;28;20461;-67
2022/05/17 00:56:52;;;;;;;19.43;17.93;;;12.70;99.90;;;;;;5076567;28;20811;-66
2022/05/17 00:59:20;;;;;;;18.47;17.17;;;12.60;99.90;;;;;;5077653;28;20488;-67
2022/05/17 01:01:47;;;;;;;18.47;17.37;;;12.60;99.90;;;;;;5071860;28;22780;-66
2022/05/17 01:04:19;;;;;;;18.33;17.13;;;12.50;99.90;;;;;;5081157;28;20485;-67
2022/05/17 01:06:51;;;;;;;18.40;17.07;;;12.50;99.90;;;;;;5058333;28;20486;-67
2022/05/17 01:09:19;;;;;;;18.67;17.37;;;12.50;99.90;;;;;;5053935;28;20969;-66
2022/05/17 01:11:46;;;;;;;19.20;17.90;;;12.50;99.90;;;;;;5053591;28;20465;-66
2022/05/17 01:16:59;;;;;;;19.67;18.30;;;12.50;99.90;;;;;;5057686;28;20466;-69
2022/05/17 01:19:26;;;;;;;18.77;17.37;;;12.40;99.90;;;;;;5058116;28;20454;-66
2022/05/17 01:21:55;;;;;;;18.30;17.00;;;12.40;99.90;;;;;;5060770;28;20470;-67
2022/05/17 01:24:22;;;;;;;19.60;18.30;;;12.40;99.90;;;;;;5056959;28;20473;-66
2022/05/17 01:26:55;;;;;;;18.67;17.47;;;12.40;99.90;;;;;;5055451;28;20586;-66
2022/05/17 01:29:22;;;;;;;18.13;17.03;;;12.40;99.90;;;;;;5057981;28;20463;-66
2022/05/17 01:31:51;;;;;;;21.80;19.47;;;12.40;99.90;;;;;;5058021;28;20463;-67
2022/05/17 01:34:18;;;;;;;19.33;17.77;;;12.50;99.90;;;;;;5058233;28;20460;-66
2022/05/17 01:36:45;;;;;;;20.13;18.60;;;12.50;99.90;;;;;;5064426;28;21027;-67
2022/05/17 01:39:13;;;;;;;19.53;18.13;;;12.50;99.90;;;;;;5056129;28;20463;-66
2022/05/17 01:41:40;;;;;;;20.00;18.23;;;12.40;99.90;;;;;;5055379;28;20792;-66
2022/05/17 01:44:10;;;;;;;21.17;19.47;;;12.40;99.90;;;;;;5055754;28;20451;-66
2022/05/17 01:46:38;;;;;;;20.57;19.07;;;12.40;99.90;;;;;;5054300;28;20990;-66
2022/05/17 01:49:05;;;;;;;19.77;18.13;;;12.40;99.90;;;;;;5065194;28;20513;-67
2022/05/17 01:51:33;;;;;;;19.60;18.07;;;12.40;99.90;;;;;;5066028;28;20468;-67
2022/05/17 01:54:00;;;;;;;20.63;18.63;;;12.40;99.90;;;;;;5061872;28;20462;-67
2022/05/17 01:56:28;;;;;;;20.93;19.00;;;12.40;99.90;;;;;;5058229;28;20981;-67
2022/05/17 01:58:55;;;;;;;19.13;17.67;;;12.70;99.90;;;;;;5065969;28;20937;-66
2022/05/17 02:01:23;;;;;;;20.30;18.13;;;12.90;99.90;;;;;;5063760;28;21045;-67
2022/05/17 02:03:49;;;;;;;19.47;17.87;;;13.10;99.90;;;;;;5059425;28;20467;-66
2022/05/17 02:06:16;;;;;;;19.67;17.43;;;13.10;99.90;;;;;;5079925;28;20498;-66
2022/05/17 02:08:44;;;;;;;19.90;18.50;;;13.10;99.90;;;;;;5077283;28;20462;-66
2022/05/17 02:13:55;;;;;;;20.47;19.07;;;13.00;99.90;;;;;;5077013;28;20549;-66
2022/05/17 02:16:22;;;;;;;20.77;19.10;;;12.90;99.90;;;;;;5083336;28;20465;-67
2022/05/17 02:18:50;;;;;;;19.83;18.17;;;12.80;99.90;;;;;;5080333;28;20818;-67
2022/05/17 02:21:17;;;;;;;20.03;18.63;;;12.70;99.90;;;;;;5079771;28;20450;-66
2022/05/17 02:23:44;;;;;;;19.73;18.40;;;12.60;99.90;;;;;;5081326;28;20454;-66
2022/05/17 02:26:11;;;;;;;19.43;17.83;;;12.50;99.90;;;;;;5080348;28;20689;-67
2022/05/17 02:28:42;;;;;;;20.70;19.00;;;12.50;99.90;;;;;;5077172;28;20924;-66
2022/05/17 02:31:12;;;;;;;22.73;21.17;;;12.30;99.90;;;;;;5074669;28;20985;-67
2022/05/17 02:33:39;;;;;;;20.80;19.20;;;12.30;99.90;;;;;;5085731;28;20481;-67
2022/05/17 02:36:06;;;;;;;18.87;16.77;;;12.30;99.90;;;;;;5081059;28;20465;-66
2022/05/17 02:38:34;;;;;;;19.10;17.60;;;12.10;99.90;;;;;;5078742;28;20466;-66
2022/05/17 02:41:01;;;;;;;21.50;19.80;;;12.00;99.90;;;;;;5076288;28;20462;-66
2022/05/17 02:43:28;;;;;;;19.00;17.67;;;12.00;99.90;;;;;;5085324;28;20541;-66
2022/05/17 02:45:55;;;;;;;20.00;18.80;;;12.00;99.90;;;;;;5086033;28;20490;-66
2022/05/17 02:48:23;;;;;;;21.03;19.03;;;11.90;99.90;;;;;;5081890;28;20990;-66
2022/05/17 02:50:50;;;;;;;20.70;18.80;;;11.90;99.90;;;;;;5077390;28;20458;-66
2022/05/17 02:53:18;;;;;;;20.50;19.20;;;11.90;99.90;;;;;;5079723;28;20489;-66
2022/05/17 02:55:45;;;;;;;19.87;18.10;;;11.80;99.90;;;;;;5079925;28;20474;-66
2022/05/17 02:58:12;;;;;;;20.30;18.80;;;11.90;99.90;;;;;;5080070;28;20834;-66
2022/05/17 03:00:39;;;;;;;20.60;18.63;;;11.90;99.90;;;;;;5080016;28;20462;-67
2022/05/17 03:03:08;;;;;;;19.97;18.50;;;11.90;99.90;;;;;;5079719;28;20557;-66
2022/05/17 03:05:37;;;;;;;19.93;18.50;;;11.90;99.90;;;;;;5080598;28;20482;-66
2022/05/17 03:08:04;;;;;;;20.73;19.20;;;12.00;99.90;;;;;;5079270;28;20466;-66
2022/05/17 03:10:32;;;;;;;19.63;18.17;;;11.90;99.90;;;;;;5081261;28;20642;-67
2022/05/17 03:13:01;;;;;;;20.90;18.80;;;12.00;99.90;;;;;;5077571;28;20459;-66
2022/05/17 03:15:29;;;;;;;18.80;17.37;;;12.10;99.90;;;;;;5080624;28;20470;-67
2022/05/17 03:17:56;;;;;;;19.90;18.30;;;12.10;99.90;;;;;;5076299;28;20467;-65
2022/05/17 03:20:23;;;;;;;20.57;18.63;;;12.10;99.90;;;;;;5080120;28;20966;-67
2022/05/17 03:22:52;;;;;;;21.23;18.90;;;12.10;99.90;;;;;;5081916;28;20466;-68
2022/05/17 03:25:19;;;;;;;20.43;18.83;;;12.20;99.90;;;;;;5084665;28;21090;-69
2022/05/17 03:27:46;;;;;;;19.40;18.00;;;12.20;99.90;;;;;;5084001;28;20835;-68
2022/05/17 03:30:14;;;;;;;20.30;18.50;;;12.20;99.90;;;;;;5078173;28;20465;-68
2022/05/17 03:32:42;;;;;;;20.60;18.90;;;12.20;99.90;;;;;;5077713;28;20462;-69
2022/05/17 03:35:09;;;;;;;20.30;18.70;;;12.10;99.90;;;;;;5083130;28;20465;-68
2022/05/17 03:37:37;;;;;;;21.10;19.17;;;12.10;99.90;;;;;;5081547;28;20621;-66
2022/05/17 03:40:07;;;;;;;20.73;18.90;;;12.10;99.90;;;;;;5077842;28;21061;-66
2022/05/17 03:42:35;;;;;;;20.13;18.60;;;12.20;99.90;;;;;;5077399;28;20458;-66
2022/05/17 03:45:03;;;;;;;20.83;19.43;;;12.20;99.90;;;;;;5079239;28;20477;-65
2022/05/17 03:47:30;;;;;;;19.53;18.03;;;12.30;99.90;;;;;;5078588;28;20491;-66
2022/05/17 03:49:57;;;;;;;18.27;16.87;;;12.40;99.90;;;;;;5081956;28;20487;-65
2022/05/17 03:52:25;;;;;;;20.60;18.67;;;12.50;99.90;;;;;;5084537;28;20458;-66
2022/05/17 03:54:56;;;;;;;18.87;17.43;;;12.60;99.90;;;;;;5082514;28;20454;-66
2022/05/17 03:57:25;;;;;;;18.40;17.00;;;12.70;99.90;;;;;;5077063;28;20510;-66
2022/05/17 03:59:51;;;;;;;17.97;16.67;;;12.70;99.90;;;;;;5077152;28;20465;-66
2022/05/17 04:02:19;;;;;;;18.70;17.07;;;12.80;99.90;;;;;;5076811;28;20549;-66
2022/05/17 04:04:46;;;;;;;18.07;16.67;;;12.90;99.90;;;;;;5074052;28;20517;-66
2022/05/17 04:07:14;;;;;;;19.80;17.93;;;13.00;99.90;;;;;;5081017;28;20489;-66
2022/05/17 04:09:41;;;;;;;19.20;17.70;;;13.10;99.90;;;;;;5076124;28;20485;-66
2022/05/17 04:12:08;;;;;;;18.33;16.83;;;13.30;99.90;;;;;;5051944;28;21272;-66
2022/05/17 04:14:37;;;;;;;17.47;15.83;;;13.40;99.90;;;;;;5047403;28;20470;-66
2022/05/17 04:17:05;;;;;;;18.73;17.03;;;13.50;99.90;;;;;;5047750;28;20535;-66
2022/05/17 04:19:32;;;;;;;16.80;15.60;;;13.70;99.90;;;;;;5046996;28;21008;-65
2022/05/17 04:21:59;;;;;;;16.13;14.83;;;13.90;99.90;;;;;;5047462;28;20463;-66
2022/05/17 04:24:27;;;;;;;16.30;14.73;;;14.10;99.90;;;;;;5048090;28;20509;-68
2022/05/17 04:26:54;;;;;;;15.40;13.77;;;14.30;99.90;;;;;;5047256;28;20601;-67
2022/05/17 04:29:22;;;;;;;14.47;13.40;;;14.40;99.90;;;;;;5047624;28;20459;-67
2022/05/17 04:31:52;;;;;;;14.57;13.50;;;14.60;99.90;;;;;;5045714;28;21144;-67
2022/05/17 04:34:19;;;;;;;15.20;13.80;;;14.80;99.90;;;;;;5047632;28;20497;-66
2022/05/17 04:36:46;;;;;;;14.33;12.13;;;14.90;99.90;;;;;;5047072;28;20465;-67
2022/05/17 04:39:13;;;;;;;14.57;13.57;;;14.80;99.90;;;;;;5047173;28;20462;-67
2022/05/17 04:41:40;;;;;;;13.60;12.23;;;14.50;99.90;;;;;;5047621;28;20936;-66
2022/05/17 04:44:07;;;;;;;13.43;12.60;;;14.40;99.90;;;;;;5046960;28;20570;-67
2022/05/17 04:46:34;;;;;;;14.20;13.00;;;14.40;99.90;;;;;;5047161;28;20885;-67
2022/05/17 04:49:02;;;;;;;14.83;13.07;;;14.70;99.90;;;;;;5048117;28;20988;-67
2022/05/17 04:51:32;;;;;;;13.80;12.43;;;14.90;99.90;;;;;;5046596;28;20469;-66
2022/05/17 04:53:59;;;;;;;14.87;11.93;;;15.10;99.90;;;;;;5047318;28;20836;-66
2022/05/17 04:56:26;;;;;;;15.03;13.93;;;15.20;99.90;;;;;;5046372;28;20501;-67
2022/05/17 04:58:53;;;;;;;16.43;11.67;;;15.30;99.90;;;;;;5047185;28;20470;-67
2022/05/17 05:01:21;;;;;;;14.40;11.43;;;15.50;99.90;;;;;;5047511;28;20808;-67
2022/05/17 05:03:48;;;;;;;13.67;12.27;;;15.60;99.90;;;;;;5046558;28;20568;-67
2022/05/17 05:06:16;;;;;;;14.20;11.20;;;15.60;99.90;;;;;;5046548;28;20490;-69
2022/05/17 05:08:43;;;;;;;13.93;12.43;;;15.70;99.90;;;;;;5047170;28;20935;-67
2022/05/17 05:11:10;;;;;;;13.47;12.30;;;15.70;99.90;;;;;;5046321;28;20470;-67
2022/05/17 05:13:37;;;;;;;14.10;11.80;;;15.70;99.90;;;;;;5045953;28;20462;-67
2022/05/17 05:16:10;;;;;;;13.23;12.13;;;15.60;99.90;;;;;;5046385;28;20494;-67
2022/05/17 05:18:37;;;;;;;17.17;12.10;;;15.60;99.90;;;;;;5046697;28;20466;-67
2022/05/17 05:21:06;;;;;;;12.80;11.57;;;15.50;99.90;;;;;;5045957;28;20504;-68
2022/05/17 05:23:34;;;;;;;13.27;11.87;;;15.60;99.90;;;;;;5047009;28;20474;-67
2022/05/17 05:26:02;;;;;;;13.17;11.93;;;15.90;99.90;;;;;;5046030;28;20944;-66
2022/05/17 05:28:29;;;;;;;14.10;11.23;;;16.10;99.90;;;;;;5047118;28;20470;-67
2022/05/17 05:30:56;;;;;;;17.10;12.37;;;16.30;99.90;;;;;;5046041;28;21010;-68
2022/05/17 05:33:23;;;;;;;14.60;13.10;;;16.50;99.90;;;;;;5046727;28;20467;-67
2022/05/17 05:35:51;;;;;;;13.13;11.70;;;16.70;99.90;;;;;;5046449;28;20474;-66
2022/05/17 05:38:18;;;;;;;14.30;12.73;;;17.00;99.90;;;;;;5046941;28;20463;-68
2022/05/17 05:40:47;;;;;;;21.17;13.50;;;17.10;99.90;;;;;;5046642;28;20481;-66
2022/05/17 05:43:14;;;;;;;20.10;12.63;;;17.40;99.90;;;;;;5046679;28;20459;-67
2022/05/17 05:45:41;;;;;;;31.50;15.43;;;17.60;99.90;;;;;;5046256;28;20470;-68
2022/05/17 05:48:08;;;;;;;20.03;14.70;;;17.70;99.90;;;;;;5046322;28;20555;-67
2022/05/17 05:50:35;;;;;;;18.17;14.07;;;17.60;99.90;;;;;;5046354;28;20466;-67
2022/05/17 05:53:06;;;;;;;16.93;13.77;;;17.70;99.90;;;;;;5047718;28;20493;-67
2022/05/17 05:55:34;;;;;;;20.23;15.40;;;17.80;99.90;;;;;;5048629;28;20846;-67
2022/05/17 05:58:02;;;;;;;17.17;15.77;;;17.90;99.90;;;;;;5047348;28;20462;-66
2022/05/17 06:00:29;;;;;;;20.20;15.03;;;18.20;99.90;;;;;;5046922;28;21168;-66
2022/05/17 06:02:58;;;;;;;25.80;15.67;;;18.40;99.90;;;;;;5044036;28;20496;-68
2022/05/17 06:05:25;;;;;;;27.13;16.50;;;18.40;99.90;;;;;;5046065;28;20486;-67
2022/05/17 06:07:53;;;;;;;25.77;15.87;;;18.40;99.90;;;;;;5045504;28;20487;-68
2022/05/17 06:10:21;;;;;;;20.43;16.13;;;18.60;99.90;;;;;;5045014;28;21210;-68
2022/05/17 06:12:48;;;;;;;24.50;16.57;;;18.80;99.90;;;;;;5045585;28;20832;-67
2022/05/17 06:15:17;;;;;;;24.43;16.50;;;18.90;99.90;;;;;;5046470;28;20470;-66
2022/05/17 06:17:44;;;;;;;19.10;15.93;;;19.00;99.90;;;;;;5046205;28;20546;-68
2022/05/17 06:20:14;;;;;;;24.57;17.17;;;18.90;99.90;;;;;;5046069;28;20455;-69
2022/05/17 06:22:42;;;;;;;27.17;17.47;;;19.20;99.90;;;;;;5045919;28;20459;-69
2022/05/17 06:25:09;;;;;;;25.47;17.60;;;19.40;99.90;;;;;;5044158;28;20673;-69
2022/05/17 06:27:36;;;;;;;26.33;16.53;;;19.70;99.90;;;;;;5046145;28;20919;-69
2022/05/17 06:30:04;;;;;;;22.23;16.90;;;19.70;99.90;;;;;;5044781;28;20447;-68
2022/05/17 06:32:33;;;;;;;25.83;17.23;;;20.10;99.90;;;;;;5045372;28;20449;-69
2022/05/17 06:35:00;;;;;;;26.77;16.83;;;20.30;99.90;;;;;;5048995;28;20544;-69
2022/05/17 06:37:27;;;;;;;23.87;17.00;;;20.90;99.90;;;;;;5050193;28;22541;-68
2022/05/17 06:39:55;;;;;;;17.63;15.83;;;21.20;99.90;;;;;;5048802;28;20459;-69
2022/05/17 06:42:22;;;;;;;28.93;17.73;;;21.50;99.90;;;;;;5048846;28;21038;-69
2022/05/17 06:44:49;;;;;;;23.83;17.10;;;21.50;99.90;;;;;;5048787;28;20470;-68
2022/05/17 06:47:16;;;;;;;23.43;18.70;;;21.80;99.90;;;;;;5049497;28;20493;-69
2022/05/17 06:49:45;;;;;;;29.60;18.00;;;22.10;99.90;;;;;;5048503;28;20462;-69
2022/05/17 06:52:12;;;;;;;30.77;18.03;;;22.10;99.90;;;;;;5048905;28;20466;-69
2022/05/17 06:54:40;;;;;;;34.20;17.80;;;22.20;99.90;;;;;;5049085;28;21105;-68
2022/05/17 06:57:08;;;;;;;43.93;17.90;;;22.40;99.90;;;;;;5046496;28;20466;-69
2022/05/17 06:59:37;;;;;;;33.57;18.13;;;22.40;99.90;;;;;;5040584;28;21184;-68
2022/05/17 07:02:05;;;;;;;28.93;17.17;;;22.50;99.90;;;;;;5042563;28;20845;-68
2022/05/17 07:04:33;;;;;;;30.03;17.67;;;22.60;99.90;;;;;;5042344;28;20954;-69
2022/05/17 07:07:02;;;;;;;29.73;17.77;;;22.70;99.90;;;;;;5044315;28;20485;-69
2022/05/17 07:09:30;;;;;;;30.73;17.00;;;22.90;99.90;;;;;;5044877;28;20462;-69
2022/05/17 07:14:42;;;;;;;19.10;16.50;;;23.30;99.90;;;;;;5047320;28;21027;-66
2022/05/17 07:17:13;;;;;;;29.77;16.63;;;23.50;99.90;;;;;;5073811;28;20463;-66
2022/05/17 07:19:40;;;;;;;34.60;17.43;;;23.40;99.90;;;;;;5069164;28;20478;-66
2022/05/17 07:22:08;;;;;;;26.53;17.30;;;23.60;99.90;;;;;;5062776;28;20497;-70
2022/05/17 07:24:36;;;;;;;27.13;16.60;;;23.50;99.90;;;;;;5042692;28;20462;-69
2022/05/17 07:27:05;;;;;;;18.43;16.37;;;23.60;99.90;;;;;;5043714;28;21332;-69
2022/05/17 07:29:32;;;;;;;24.30;17.03;;;23.70;99.90;;;;;;5068733;28;20512;-69
2022/05/17 07:31:59;;;;;;;20.50;16.87;;;23.70;99.90;;;;;;5075620;28;20867;-69
2022/05/17 07:34:27;;;;;;;18.10;16.63;;;23.80;99.90;;;;;;5076081;28;20470;-68
2022/05/17 07:36:55;;;;;;;17.53;15.97;;;24.20;99.90;;;;;;5070192;28;20484;-69
2022/05/17 07:39:23;;;;;;;17.83;16.13;;;24.30;99.90;;;;;;5042449;28;20463;-69
2022/05/17 07:41:52;;;;;;;20.70;17.40;;;24.70;99.90;;;;;;5042209;28;20467;-69
2022/05/17 07:44:19;;;;;;;18.20;16.70;;;24.50;99.90;;;;;;5042936;28;20802;-69
2022/05/17 07:46:46;;;;;;;17.80;16.10;;;24.80;99.90;;;;;;5042942;28;20459;-69
2022/05/17 07:49:13;;;;;;;18.77;16.90;;;25.10;99.90;;;;;;5043738;28;20978;-69
2022/05/17 07:51:40;;;;;;;20.03;15.97;;;25.30;99.90;;;;;;5041526;28;20962;-68
2022/05/17 07:54:07;;;;;;;29.40;16.30;;;25.20;99.90;;;;;;5043330;28;20459;-68
2022/05/17 07:56:35;;;;;;;27.07;17.33;;;24.60;99.90;;;;;;5044489;28;20532;-68
2022/05/17 07:59:02;;;;;;;24.00;16.33;;;24.50;99.90;;;;;;5043087;28;21019;-68
2022/05/17 08:01:29;;;;;;;24.33;16.57;;;25.10;99.90;;;;;;5043043;28;20477;-68
2022/05/17 08:03:56;;;;;;;18.77;16.17;;;25.00;99.90;;;;;;5043606;28;20478;-68
2022/05/17 08:06:23;;;;;;;31.77;16.60;;;25.10;99.90;;;;;;5043351;28;20543;-68
2022/05/17 08:08:50;;;;;;;19.07;15.33;;;25.00;99.90;;;;;;5042923;28;20802;-68
2022/05/17 08:11:18;;;;;;;19.90;16.23;;;25.20;99.90;;;;;;5046048;28;20608;-68
2022/05/17 08:13:46;;;;;;;17.37;15.43;;;25.60;99.90;;;;;;5078147;28;20476;-69
2022/05/17 08:16:13;;;;;;;16.73;15.00;;;25.90;99.90;;;;;;5056251;28;21109;-68
2022/05/17 08:18:40;;;;;;;18.77;16.70;;;26.50;99.90;;;;;;5043514;28;21192;-69
2022/05/17 08:21:07;;;;;;;28.10;16.93;;;26.70;99.90;;;;;;5039036;28;20471;-68
2022/05/17 08:23:34;;;;;;;39.17;18.37;;;26.70;99.60;;;;;;5042993;28;20476;-69
2022/05/17 08:28:47;;;;;;;27.07;16.57;;;26.40;99.50;;;;;;5055363;28;21038;-69
2022/05/17 08:31:14;;;;;;;23.80;16.20;;;26.60;99.80;;;;;;5042568;28;20463;-69
2022/05/17 08:33:41;;;;;;;24.30;15.37;;;27.00;98.60;;;;;;5053337;28;20466;-68
2022/05/17 08:36:11;;;;;;;29.40;16.47;;;26.70;98.20;;;;;;5043703;28;20833;-68
2022/05/17 08:38:40;;;;;;;17.73;15.70;;;26.20;98.40;;;;;;5057245;28;20954;-68
2022/05/17 08:41:17;;;;;;;21.40;16.07;;;26.60;99.10;;;;;;5059561;28;20467;-68
2022/05/17 08:43:51;;;;;;;23.20;15.30;;;27.00;98.50;;;;;;5059918;28;20450;-68
2022/05/17 08:46:36;;;;;;;25.83;16.20;;;27.40;98.00;;;;;;5053507;28;20465;-68
2022/05/17 08:49:18;;;;;;;34.00;15.83;;;27.60;98.00;;;;;;5041889;28;20809;-69
2022/05/17 08:51:48;;;;;;;21.20;16.60;;;28.10;96.60;;;;;;5037888;28;20460;-68
2022/05/17 08:54:18;;;;;;;18.80;15.73;;;28.50;95.90;;;;;;5043380;28;20462;-68
2022/05/17 08:56:48;;;;;;;26.63;16.87;;;28.90;94.70;;;;;;5035119;28;20477;-69
2022/05/17 08:59:24;;;;;;;17.70;15.90;;;29.30;93.60;;;;;;5045043;28;22652;-69
2022/05/17 09:01:59;;;;;;;17.13;15.73;;;29.60;93.20;;;;;;5041037;28;20501;-70
2022/05/17 09:04:41;;;;;;;18.20;16.50;;;29.60;92.30;;;;;;5051565;28;21699;-70
2022/05/17 09:07:16;;;;;;;16.10;14.80;;;29.70;91.00;;;;;;5030456;28;20478;-69
2022/05/17 09:09:56;;;;;;;16.13;14.60;;;29.30;90.60;;;;;;5045186;28;20477;-69
2022/05/17 09:12:29;;;;;;;16.87;15.10;;;29.10;89.60;;;;;;5070845;28;20987;-69
2022/05/17 09:15:00;;;;;;;16.13;15.00;;;29.10;90.40;;;;;;5070780;28;20558;-69
2022/05/17 09:17:28;;;;;;;16.47;15.33;;;29.30;90.20;;;;;;5049240;28;20476;-69
2022/05/17 09:19:56;;;;;;;18.00;16.30;;;29.30;90.00;;;;;;5041739;28;22075;-69
2022/05/17 09:22:24;;;;;;;17.57;16.47;;;29.50;90.60;;;;;;5040939;28;21035;-69
2022/05/17 09:24:57;;;;;;;16.83;15.80;;;29.70;87.90;;;;;;5042133;28;20839;-69
2022/05/17 09:27:29;;;;;;;17.73;15.93;;;29.50;85.80;;;;;;5039447;28;20455;-70
2022/05/17 09:30:06;;;;;;;17.10;15.90;;;29.60;83.10;;;;;;5041647;28;20459;-69
2022/05/17 09:32:35;;;;;;;17.10;15.60;;;30.10;83.10;;;;;;5071420;28;20486;-69
2022/05/17 09:35:10;;;;;;;15.87;14.57;;;30.20;80.50;;;;;;5068572;28;20466;-69
2022/05/17 09:37:40;;;;;;;16.63;15.30;;;30.70;81.50;;;;;;5074566;28;20469;-69
2022/05/17 09:40:10;;;;;;;16.03;14.70;;;30.40;77.90;;;;;;5041659;28;20788;-69
2022/05/17 09:42:44;;;;;;;15.20;14.10;;;30.40;76.30;;;;;;5040968;28;20467;-70
2022/05/17 09:45:16;;;;;;;15.47;14.37;;;30.00;76.00;;;;;;5040856;28;20995;-69
2022/05/17 09:47:53;;;;;;;15.87;14.47;;;29.60;75.00;;;;;;5041435;28;20926;-70
2022/05/17 09:53:08;;;;;;;15.80;14.50;;;29.70;74.80;;;;;;5041630;28;20467;-69
2022/05/17 09:55:35;;;;;;;15.23;14.03;;;29.30;76.40;;;;;;5040441;28;20540;-69
2022/05/17 09:58:05;;;;;;;15.23;14.13;;;29.60;75.50;;;;;;5041237;28;20723;-70
2022/05/17 10:00:40;;;;;;;17.83;14.20;;;29.60;74.90;;;;;;5041316;28;20443;-69
2022/05/17 10:03:27;;;;;;;16.00;14.60;;;29.30;73.60;;;;;;5041350;28;20500;-69
2022/05/17 10:05:58;;;;;;;15.20;14.30;;;29.10;76.10;;;;;;5032895;28;20486;-69
2022/05/17 10:08:32;;;;;;;16.20;14.70;;;29.60;77.60;;;;;;5043221;28;21186;-68
2022/05/17 10:11:06;;;;;;;20.10;14.67;;;29.60;73.10;;;;;;5044047;28;20466;-70
2022/05/17 10:13:36;;;;;;;15.07;14.03;;;29.50;75.50;;;;;;5045318;28;20962;-69
2022/05/17 10:16:09;;;;;;;15.33;14.27;;;29.90;74.60;;;;;;5044913;28;20601;-69
2022/05/17 10:18:42;;;;;;;15.77;14.43;;;30.00;72.90;;;;;;5043937;28;20520;-68
2022/05/17 10:21:14;;;;;;;15.83;14.80;;;30.00;73.50;;;;;;5044591;28;20969;-69
2022/05/17 10:23:59;;;;;;;14.63;13.63;;;30.60;73.00;;;;;;5044382;28;20475;-68
2022/05/17 10:26:33;;;;;;;17.13;16.03;;;31.20;71.90;;;;;;5042805;28;21311;-69
2022/05/17 10:29:04;;;;;;;16.07;14.97;;;30.90;71.60;;;;;;5045023;28;20997;-68
2022/05/17 10:31:38;;;;;;;15.97;15.07;;;30.80;67.50;;;;;;5045163;28;20457;-68
2022/05/17 10:34:21;;;;;;;15.67;14.77;;;30.30;70.20;;;;;;5044849;28;20463;-68
2022/05/17 10:36:51;;;;;;;15.60;14.70;;;30.80;67.30;;;;;;5043752;28;20503;-68
2022/05/17 10:39:30;;;;;;;15.60;14.37;;;30.40;67.50;;;;;;5044961;28;20470;-68
2022/05/17 10:41:57;;;;;;;15.40;14.47;;;30.70;67.70;;;;;;5043936;28;20523;-69
2022/05/17 10:44:37;;;;;;;18.40;14.57;;;30.60;67.50;;;;;;5041682;28;20962;-69
2022/05/17 10:47:13;;;;;;;15.97;14.50;;;30.10;65.90;;;;;;5043561;28;20520;-69
2022/05/17 10:49:59;;;;;;;15.53;14.67;;;30.30;65.40;;;;;;5045072;28;20490;-69
2022/05/17 10:52:52;;;;;;;14.20;13.40;;;29.90;64.30;;;;;;5044630;28;20944;-69
2022/05/17 10:55:25;;;;;;;17.57;13.80;;;29.10;64.80;;;;;;5041385;28;20478;-68
2022/05/17 10:57:58;;;;;;;14.60;13.63;;;28.90;67.70;;;;;;5043159;28;20478;-68
2022/05/17 11:00:32;;;;;;;15.73;14.07;;;28.50;67.40;;;;;;5045322;28;20564;-68
2022/05/17 11:03:37;;;;;;;15.13;13.70;;;28.80;71.10;;;;;;5074854;28;20474;-68
2022/05/17 11:06:18;;;;;;;16.70;15.33;;;29.40;70.00;;;;;;4985285;28;20549;-68
2022/05/17 11:08:54;;;;;;;16.03;14.93;;;29.80;69.20;;;;;;5022561;28;20546;-69
2022/05/17 11:11:42;;;;;;;16.23;15.33;;;30.00;68.20;;;;;;5022705;28;20593;-68
2022/05/17 11:14:17;;;;;;;17.70;16.10;;;30.40;67.10;;;;;;5023258;28;21314;-68
2022/05/17 11:16:54;;;;;;;16.40;15.50;;;30.90;65.60;;;;;;5021937;28;20472;-69
2022/05/17 11:19:26;;;;;;;17.77;16.37;;;30.40;65.00;;;;;;5021186;28;20456;-69
2022/05/17 11:22:01;;;;;;;16.60;15.53;;;31.30;64.90;;;;;;5022449;28;20483;-69
2022/05/17 11:24:49;;;;;;;16.27;15.33;;;31.60;64.60;;;;;;5021616;28;21011;-69
2022/05/17 11:27:34;;;;;;;16.27;15.10;;;32.50;63.80;;;;;;5021697;28;20974;-69
2022/05/17 11:30:13;;;;;;;16.47;14.90;;;32.80;60.10;;;;;;5021943;28;20483;-68
2022/05/17 11:32:42;;;;;;;16.30;15.30;;;32.90;60.70;;;;;;5022741;28;20462;-69
2022/05/17 11:35:37;;;;;;;16.43;15.37;;;33.00;61.10;;;;;;5022180;28;20651;-69
2022/05/17 11:38:09;;;;;;;16.07;15.07;;;32.80;60.20;;;;;;5022220;28;20468;-69
2022/05/17 11:40:58;;;;;;;16.37;15.40;;;33.10;61.10;;;;;;5022031;28;20464;-69
2022/05/17 11:43:57;;;;;;;16.17;15.07;;;33.00;60.40;;;;;;5023748;28;20495;-69
2022/05/17 11:46:55;;;;;;;16.43;15.20;;;32.20;60.00;;;;;;5004359;28;20464;-69
2022/05/17 11:49:49;;;;;;;16.33;15.13;;;32.00;60.60;;;;;;5021924;28;20970;-69
2022/05/17 11:52:31;;;;;;;16.50;15.20;;;32.00;60.10;;;;;;5022020;28;20460;-69
2022/05/17 11:55:02;;;;;;;16.40;15.30;;;32.90;60.10;;;;;;5022261;28;20459;-69
2022/05/17 11:58:03;;;;;;;15.90;14.80;;;33.30;59.00;;;;;;5020336;28;20478;-68
2022/05/17 12:00:51;;;;;;;16.53;15.63;;;33.60;59.80;;;;;;5019617;28;20508;-69
2022/05/17 12:03:46;;;;;;;15.70;14.70;;;33.80;58.20;;;;;;5019584;28;21350;-69
2022/05/17 12:06:43;;;;;;;17.20;15.80;;;33.40;55.80;;;;;;5034118;28;20544;-68
2022/05/17 12:09:29;;;;;;;15.90;14.30;;;33.80;56.70;;;;;;5040610;28;20490;-69
2022/05/17 12:12:37;;;;;;;17.73;15.07;;;34.10;56.90;;;;;;5038569;28;21134;-69
2022/05/17 12:15:34;;;;;;;16.67;15.67;;;35.90;56.10;;;;;;5039955;28;20478;-68
2022/05/17 12:18:36;;;;;;;15.60;14.60;;;35.50;55.20;;;;;;5030163;28;20490;-69
2022/05/17 12:21:16;;;;;;;15.47;14.57;;;35.80;54.30;;;;;;4961944;28;20462;-69
2022/05/17 12:23:49;;;;;;;15.07;14.20;;;36.80;52.70;;;;;;5029966;28;20466;-68
2022/05/17 12:26:23;;;;;;;15.63;14.30;;;36.80;51.30;;;;;;5040943;28;20464;-69
2022/05/17 12:28:53;;;;;;;15.60;14.07;;;37.10;51.20;;;;;;5041343;28;20481;-70
2022/05/17 12:31:25;;;;;;;14.53;13.77;;;37.30;50.30;;;;;;5040082;28;20454;-70
2022/05/17 12:33:53;;;;;;;15.17;14.00;;;37.70;49.80;;;;;;5062217;28;20471;-69
2022/05/17 12:36:22;;;;;;;15.77;14.77;;;38.00;47.20;;;;;;5071506;28;20463;-70
2022/05/17 12:44:32;;;;;;;15.83;13.87;;;37.70;45.40;;;;;;5041221;28;20446;-70
2022/05/17 12:47:00;;;;;;;15.90;14.40;;;37.00;47.20;;;;;;5040339;28;20474;-70
2022/05/17 12:49:31;;;;;;;15.37;14.13;;;36.50;47.80;;;;;;5040252;28;20463;-70
2022/05/17 12:52:01;;;;;;;14.80;14.10;;;36.20;48.40;;;;;;5040575;28;20907;-69
2022/05/17 12:54:30;;;;;;;15.70;14.80;;;35.20;48.80;;;;;;5057109;28;20805;-70
2022/05/17 12:56:58;;;;;;;14.80;14.10;;;35.00;48.30;;;;;;5062716;28;20475;-71
2022/05/17 12:59:28;;;;;;;15.07;13.97;;;34.40;48.30;;;;;;5039800;28;21044;-70
2022/05/17 13:01:57;;;;;;;14.70;13.80;;;34.80;48.70;;;;;;5038655;28;20488;-70
2022/05/17 13:04:31;;;;;;;14.37;13.60;;;35.10;48.60;;;;;;5037878;28;20708;-70
2022/05/17 13:07:13;;;;;;;14.93;13.93;;;35.90;47.90;;;;;;5039107;28;20463;-70
2022/05/17 13:09:55;;;;;;;14.60;13.90;;;37.50;45.30;;;;;;5038986;28;20470;-70